sensor_id;sensor_type;location;lat;lon;timestamp;pressure;altitude;pressure_sealevel;temperature;humidity
59029;BME280;45919;51.420;5.454;2022-12-20T00:00:28;101238.28;;;11.31;71.07
59029;BME280;45919;51.420;5.454;2022-12-20T00:01:31;101241.78;;;11.33;71.16
59029;BME280;45919;51.420;5.454;2022-12-20T00:02:33;101241.88;;;11.36;71.02
59029;BME280;45919;51.420;5.454;2022-12-20T00:03:36;101237.28;;;11.26;71.10
59029;BME280;45919;51.420;5.454;2022-12-20T00:04:38;101241.88;;;11.36;70.56
59029;BME280;45919;51.420;5.454;2022-12-20T00:05:41;101239.28;;;11.38;70.68
59029;BME280;45919;51.420;5.454;2022-12-20T00:06:43;101248.03;;;11.40;70.63
59029;BME280;45919;51.420;5.454;2022-12-20T00:07:45;101248.88;;;11.40;70.66
59029;BME280;45919;51.420;5.454;2022-12-20T00:08:46;101226.03;;;11.30;70.49
59029;BME280;45919;51.420;5.454;2022-12-20T00:09:48;101251.50;;;11.40;70.28
59029;BME280;45919;51.420;5.454;2022-12-20T00:10:49;101251.59;;;11.45;70.35
59029;BME280;45919;51.420;5.454;2022-12-20T00:11:51;101246.41;;;11.46;70.05
59029;BME280;45919;51.420;5.454;2022-12-20T00:12:53;101246.44;;;11.48;70.01
59029;BME280;45919;51.420;5.454;2022-12-20T00:13:55;101235.94;;;11.46;70.17
59029;BME280;45919;51.420;5.454;2022-12-20T00:14:57;101244.69;;;11.48;70.09
59029;BME280;45919;51.420;5.454;2022-12-20T00:16:13;101246.63;;;11.59;70.27
59029;BME280;45919;51.420;5.454;2022-12-20T00:17:15;101238.69;;;11.53;69.85
59029;BME280;45919;51.420;5.454;2022-12-20T00:18:16;101238.69;;;11.54;69.80
59029;BME280;45919;51.420;5.454;2022-12-20T00:19:18;101233.50;;;11.56;70.03
59029;BME280;45919;51.420;5.454;2022-12-20T00:20:19;101235.22;;;11.55;69.94
59029;BME280;45919;51.420;5.454;2022-12-20T00:21:21;101232.63;;;11.57;69.62
59029;BME280;45919;51.420;5.454;2022-12-20T00:22:23;101233.50;;;11.57;69.74
59029;BME280;45919;51.420;5.454;2022-12-20T00:23:25;101228.28;;;11.57;69.59
59029;BME280;45919;51.420;5.454;2022-12-20T00:24:26;101228.31;;;11.60;69.57
59029;BME280;45919;51.420;5.454;2022-12-20T00:25:28;101198.41;;;11.44;69.51
59029;BME280;45919;51.420;5.454;2022-12-20T00:26:31;101231.88;;;11.64;69.62
59029;BME280;45919;51.420;5.454;2022-12-20T00:27:33;101225.81;;;11.65;69.60
59029;BME280;45919;51.420;5.454;2022-12-20T00:28:35;101230.16;;;11.66;69.41
59029;BME280;45919;51.420;5.454;2022-12-20T00:29:37;101231.06;;;11.67;69.40
59029;BME280;45919;51.420;5.454;2022-12-20T00:30:39;101225.81;;;11.67;69.19
59029;BME280;45919;51.420;5.454;2022-12-20T00:31:43;101223.25;;;11.70;68.93
59029;BME280;45919;51.420;5.454;2022-12-20T00:32:45;101221.53;;;11.72;69.04
59029;BME280;45919;51.420;5.454;2022-12-20T00:33:48;101232.91;;;11.74;69.20
59029;BME280;45919;51.420;5.454;2022-12-20T00:34:50;101196.81;;;11.53;69.05
59029;BME280;45919;51.420;5.454;2022-12-20T00:35:54;101224.22;;;11.77;69.26
59029;BME280;45919;51.420;5.454;2022-12-20T00:36:56;101227.66;;;11.72;69.11
59029;BME280;45919;51.420;5.454;2022-12-20T00:37:58;101207.53;;;11.70;68.74
59029;BME280;45919;51.420;5.454;2022-12-20T00:39:00;101221.66;;;11.78;69.02
59029;BME280;45919;51.420;5.454;2022-12-20T00:40:02;101212.94;;;11.81;69.00
59029;BME280;45919;51.420;5.454;2022-12-20T00:41:11;101214.78;;;11.85;68.96
59029;BME280;45919;51.420;5.454;2022-12-20T00:42:13;101223.47;;;11.84;68.39
59029;BME280;45919;51.420;5.454;2022-12-20T00:43:14;101210.38;;;11.84;68.56
59029;BME280;45919;51.420;5.454;2022-12-20T00:44:16;101217.41;;;11.85;68.46
59029;BME280;45919;51.420;5.454;2022-12-20T00:45:17;101204.31;;;11.87;68.52
59029;BME280;45919;51.420;5.454;2022-12-20T00:46:20;101213.09;;;11.89;68.25
59029;BME280;45919;51.420;5.454;2022-12-20T00:47:23;101193.03;;;11.89;68.45
59029;BME280;45919;51.420;5.454;2022-12-20T00:48:26;101192.19;;;11.92;68.54
59029;BME280;45919;51.420;5.454;2022-12-20T00:49:28;101191.34;;;11.93;68.44
59029;BME280;45919;51.420;5.454;2022-12-20T00:50:30;101201.84;;;11.94;68.42
59029;BME280;45919;51.420;5.454;2022-12-20T00:51:31;101196.59;;;11.94;68.49
59029;BME280;45919;51.420;5.454;2022-12-20T00:52:33;101178.03;;;11.80;68.26
59029;BME280;45919;51.420;5.454;2022-12-20T00:53:35;101203.59;;;11.97;68.33
59029;BME280;45919;51.420;5.454;2022-12-20T00:54:37;101215.00;;;12.01;68.12
59029;BME280;45919;51.420;5.454;2022-12-20T00:55:46;101206.38;;;12.08;68.17
59029;BME280;45919;51.420;5.454;2022-12-20T00:56:47;101206.31;;;12.03;67.89
59029;BME280;45919;51.420;5.454;2022-12-20T00:57:49;101213.31;;;12.04;68.18
59029;BME280;45919;51.420;5.454;2022-12-20T00:58:50;101211.59;;;12.06;68.18
59029;BME280;45919;51.420;5.454;2022-12-20T00:59:53;101211.63;;;12.08;68.03
59029;BME280;45919;51.420;5.454;2022-12-20T01:00:55;101207.31;;;12.10;67.80
59029;BME280;45919;51.420;5.454;2022-12-20T01:01:57;101209.97;;;12.12;67.85
59029;BME280;45919;51.420;5.454;2022-12-20T01:02:58;101212.56;;;12.12;67.91
59029;BME280;45919;51.420;5.454;2022-12-20T01:04:00;101208.25;;;12.14;68.13
59029;BME280;45919;51.420;5.454;2022-12-20T01:05:02;101209.13;;;12.14;68.15
59029;BME280;45919;51.420;5.454;2022-12-20T01:06:04;101208.25;;;12.15;68.30
59029;BME280;45919;51.420;5.454;2022-12-20T01:07:06;101212.66;;;12.16;68.66
59029;BME280;45919;51.420;5.454;2022-12-20T01:08:08;101212.66;;;12.16;68.56
59029;BME280;45919;51.420;5.454;2022-12-20T01:09:11;101190.63;;;12.05;69.03
59029;BME280;45919;51.420;5.454;2022-12-20T01:10:13;101217.91;;;12.16;69.07
59029;BME280;45919;51.420;5.454;2022-12-20T01:11:20;101224.09;;;12.22;69.86
59029;BME280;45919;51.420;5.454;2022-12-20T01:12:22;101214.34;;;12.11;69.76
59029;BME280;45919;51.420;5.454;2022-12-20T01:13:23;101213.28;;;12.03;69.81
59029;BME280;45919;51.420;5.454;2022-12-20T01:14:25;101224.88;;;12.16;69.98
59029;BME280;45919;51.420;5.454;2022-12-20T01:15:27;101214.19;;;12.05;70.37
59029;BME280;45919;51.420;5.454;2022-12-20T01:16:36;101229.28;;;12.18;70.74
59029;BME280;45919;51.420;5.454;2022-12-20T01:17:38;101231.81;;;12.14;70.58
59029;BME280;45919;51.420;5.454;2022-12-20T01:18:39;101227.44;;;12.13;70.90
59029;BME280;45919;51.420;5.454;2022-12-20T01:19:41;101226.56;;;12.12;71.41
59029;BME280;45919;51.420;5.454;2022-12-20T01:20:43;101220.41;;;12.10;71.81
59029;BME280;45919;51.420;5.454;2022-12-20T01:21:45;101210.75;;;12.07;72.41
59029;BME280;45919;51.420;5.454;2022-12-20T01:22:46;101208.97;;;12.05;72.75
59029;BME280;45919;51.420;5.454;2022-12-20T01:23:48;101204.63;;;12.05;73.78
59029;BME280;45919;51.420;5.454;2022-12-20T01:24:50;101206.31;;;12.03;74.00
59029;BME280;45919;51.420;5.454;2022-12-20T01:25:51;101212.38;;;11.99;73.94
59029;BME280;45919;51.420;5.454;2022-12-20T01:26:53;101219.31;;;11.97;74.56
59029;BME280;45919;51.420;5.454;2022-12-20T01:27:54;101224.53;;;11.97;75.10
59029;BME280;45919;51.420;5.454;2022-12-20T01:28:58;101218.44;;;11.96;75.36
59029;BME280;45919;51.420;5.454;2022-12-20T01:30:00;101214.00;;;11.92;75.36
59029;BME280;45919;51.420;5.454;2022-12-20T01:31:11;101221.94;;;11.99;75.97
59029;BME280;45919;51.420;5.454;2022-12-20T01:32:13;101227.00;;;11.88;75.80
59029;BME280;45919;51.420;5.454;2022-12-20T01:33:14;101235.72;;;11.85;76.25
59029;BME280;45919;51.420;5.454;2022-12-20T01:34:16;101217.34;;;11.82;76.67
59029;BME280;45919;51.420;5.454;2022-12-20T01:35:18;101232.19;;;11.83;76.77
59029;BME280;45919;51.420;5.454;2022-12-20T01:36:24;101221.66;;;11.78;77.48
59029;BME280;45919;51.420;5.454;2022-12-20T01:37:26;101225.09;;;11.77;77.17
59029;BME280;45919;51.420;5.454;2022-12-20T01:38:28;101212.03;;;11.77;77.90
59029;BME280;45919;51.420;5.454;2022-12-20T01:39:30;101208.50;;;11.75;78.41
59029;BME280;45919;51.420;5.454;2022-12-20T01:40:32;101213.69;;;11.72;78.27
59029;BME280;45919;51.420;5.454;2022-12-20T01:41:35;101219.84;;;11.74;78.64
59029;BME280;45919;51.420;5.454;2022-12-20T01:42:37;101215.44;;;11.73;79.07
59029;BME280;45919;51.420;5.454;2022-12-20T01:43:52;101204.22;;;11.80;79.46
59029;BME280;45919;51.420;5.454;2022-12-20T01:44:56;101207.53;;;11.70;79.94
59029;BME280;45919;51.420;5.454;2022-12-20T01:45:58;101209.22;;;11.65;80.50
59029;BME280;45919;51.420;5.454;2022-12-20T01:47:00;101196.00;;;11.57;80.51
59029;BME280;45919;51.420;5.454;2022-12-20T01:48:01;101197.81;;;11.61;80.48
59029;BME280;45919;51.420;5.454;2022-12-20T01:49:31;101203.28;;;11.77;nan
59029;BME280;45919;51.420;5.454;2022-12-20T01:50:34;101192.50;;;11.56;81.15
59029;BME280;45919;51.420;5.454;2022-12-20T01:51:40;101181.22;;;11.60;81.28
59029;BME280;45919;51.420;5.454;2022-12-20T01:52:44;101175.06;;;11.57;81.10
59029;BME280;45919;51.420;5.454;2022-12-20T01:53:51;101173.31;;;11.56;81.48
59029;BME280;45919;51.420;5.454;2022-12-20T01:55:04;101172.44;;;11.57;81.36
59029;BME280;45919;51.420;5.454;2022-12-20T01:56:08;101165.38;;;11.51;81.28
59029;BME280;45919;51.420;5.454;2022-12-20T01:57:16;101179.47;;;11.58;81.67
59029;BME280;45919;51.420;5.454;2022-12-20T01:58:19;101166.25;;;11.52;81.77
59029;BME280;45919;51.420;5.454;2022-12-20T01:59:21;101156.50;;;11.41;82.14
59029;BME280;45919;51.420;5.454;2022-12-20T02:00:23;101167.13;;;11.51;82.21
59029;BME280;45919;51.420;5.454;2022-12-20T02:01:25;101112.44;;;11.12;82.15
59029;BME280;45919;51.420;5.454;2022-12-20T02:02:27;101172.34;;;11.49;82.40
59029;BME280;45919;51.420;5.454;2022-12-20T02:03:29;101174.97;;;11.51;82.40
59029;BME280;45919;51.420;5.454;2022-12-20T02:04:32;101163.59;;;11.47;82.44
59029;BME280;45919;51.420;5.454;2022-12-20T02:05:37;101167.13;;;11.51;82.48
59029;BME280;45919;51.420;5.454;2022-12-20T02:06:39;101167.09;;;11.49;82.41
59029;BME280;45919;51.420;5.454;2022-12-20T02:07:42;101165.19;;;11.40;82.75
59029;BME280;45919;51.420;5.454;2022-12-20T02:08:48;101186.28;;;11.51;82.71
59029;BME280;45919;51.420;5.454;2022-12-20T02:09:52;101184.56;;;11.50;82.46
59029;BME280;45919;51.420;5.454;2022-12-20T02:12:42;101092.28;;;11.06;82.39
59029;BME280;45919;51.420;5.454;2022-12-20T02:16:27;101176.69;;;11.50;82.72
59029;BME280;45919;51.420;5.454;2022-12-20T02:19:14;101156.81;;;11.60;82.57
59029;BME280;45919;51.420;5.454;2022-12-20T02:22:15;101153.28;;;11.58;82.35
59029;BME280;45919;51.420;5.454;2022-12-20T02:25:31;101153.28;;;11.58;82.41
59029;BME280;45919;51.420;5.454;2022-12-20T02:30:56;101142.56;;;11.44;81.85
59029;BME280;45919;51.420;5.454;2022-12-20T02:32:25;101141.00;;;11.54;81.70
59029;BME280;45919;51.420;5.454;2022-12-20T02:33:28;101136.47;;;11.42;81.51
59029;BME280;45919;51.420;5.454;2022-12-20T02:34:32;101139.91;;;11.41;81.50
59029;BME280;45919;51.420;5.454;2022-12-20T02:35:36;101149.53;;;11.42;81.19
59029;BME280;45919;51.420;5.454;2022-12-20T02:36:37;101106.44;;;11.19;81.06
59029;BME280;45919;51.420;5.454;2022-12-20T02:37:51;101139.16;;;11.46;81.07
59029;BME280;45919;51.420;5.454;2022-12-20T02:38:53;101125.06;;;11.38;80.99
59029;BME280;45919;51.420;5.454;2022-12-20T02:39:55;101143.41;;;11.40;80.83
59029;BME280;45919;51.420;5.454;2022-12-20T02:41:02;101127.72;;;11.41;80.64
59029;BME280;45919;51.420;5.454;2022-12-20T02:42:09;101135.59;;;11.43;80.48
59029;BME280;45919;51.420;5.454;2022-12-20T02:43:11;101127.72;;;11.40;80.25
59029;BME280;45919;51.420;5.454;2022-12-20T02:44:40;101114.53;;;11.35;80.20
59029;BME280;45919;51.420;5.454;2022-12-20T02:46:02;101116.31;;;11.36;79.60
59029;BME280;45919;51.420;5.454;2022-12-20T02:47:07;101131.28;;;11.45;79.84
59029;BME280;45919;51.420;5.454;2022-12-20T02:48:10;101119.84;;;11.38;79.42
59029;BME280;45919;51.420;5.454;2022-12-20T02:49:18;101118.25;;;11.50;80.13
59029;BME280;45919;51.420;5.454;2022-12-20T02:50:37;101122.72;;;11.57;79.91
59029;BME280;45919;51.420;5.454;2022-12-20T02:51:42;101125.25;;;11.49;79.71
59029;BME280;45919;51.420;5.454;2022-12-20T02:52:46;101118.22;;;11.46;79.07
59029;BME280;45919;51.420;5.454;2022-12-20T02:53:48;101118.25;;;11.48;79.03
59029;BME280;45919;51.420;5.454;2022-12-20T02:54:51;101116.50;;;11.48;78.89
59029;BME280;45919;51.420;5.454;2022-12-20T02:56:01;101115.75;;;11.56;78.99
59029;BME280;45919;51.420;5.454;2022-12-20T02:57:16;101117.50;;;11.57;78.90
59029;BME280;45919;51.420;5.454;2022-12-20T02:58:33;101117.56;;;11.60;78.88
59029;BME280;45919;51.420;5.454;2022-12-20T02:59:45;101098.19;;;11.47;78.46
59029;BME280;45919;51.420;5.454;2022-12-20T03:00:49;101114.84;;;11.54;78.20
59029;BME280;45919;51.420;5.454;2022-12-20T03:01:53;101104.34;;;11.52;78.31
59029;BME280;45919;51.420;5.454;2022-12-20T03:02:55;101118.25;;;11.48;78.13
59029;BME280;45919;51.420;5.454;2022-12-20T03:04:17;101120.06;;;11.54;77.58
59029;BME280;45919;51.420;5.454;2022-12-20T03:05:22;101120.06;;;11.54;77.97
59029;BME280;45919;51.420;5.454;2022-12-20T03:06:24;101122.66;;;11.52;77.74
59029;BME280;45919;51.420;5.454;2022-12-20T03:07:28;101126.19;;;11.54;77.61
59029;BME280;45919;51.420;5.454;2022-12-20T03:08:30;101112.09;;;11.46;77.37
59029;BME280;45919;51.420;5.454;2022-12-20T03:09:34;101125.38;;;11.58;77.58
59029;BME280;45919;51.420;5.454;2022-12-20T03:10:37;101089.28;;;11.37;77.35
59029;BME280;45919;51.420;5.454;2022-12-20T03:11:38;101127.97;;;11.58;77.26
59029;BME280;45919;51.420;5.454;2022-12-20T03:12:40;101092.81;;;11.38;77.27
59029;BME280;45919;51.420;5.454;2022-12-20T03:13:42;101110.44;;;11.51;76.99
59029;BME280;45919;51.420;5.454;2022-12-20T03:14:43;101107.88;;;11.53;76.92
59029;BME280;45919;51.420;5.454;2022-12-20T03:15:45;101119.34;;;11.64;76.89
59029;BME280;45919;51.420;5.454;2022-12-20T03:16:47;101131.59;;;11.65;77.16
59029;BME280;45919;51.420;5.454;2022-12-20T03:17:49;101124.59;;;11.66;76.95
59029;BME280;45919;51.420;5.454;2022-12-20T03:18:51;101122.91;;;11.68;76.79
59029;BME280;45919;51.420;5.454;2022-12-20T03:19:52;101124.69;;;11.69;76.89
59029;BME280;45919;51.420;5.454;2022-12-20T03:20:54;101101.91;;;11.63;76.53
59029;BME280;45919;51.420;5.454;2022-12-20T03:21:56;101122.09;;;11.72;76.40
59029;BME280;45919;51.420;5.454;2022-12-20T03:22:58;101099.28;;;11.63;76.45
59029;BME280;45919;51.420;5.454;2022-12-20T03:23:59;101107.31;;;11.74;76.46
59029;BME280;45919;51.420;5.454;2022-12-20T03:25:01;101108.19;;;11.75;76.09
59029;BME280;45919;51.420;5.454;2022-12-20T03:26:03;101109.94;;;11.76;76.21
59029;BME280;45919;51.420;5.454;2022-12-20T03:27:04;101105.59;;;11.76;76.24
59029;BME280;45919;51.420;5.454;2022-12-20T03:28:06;101113.47;;;11.78;75.90
59029;BME280;45919;51.420;5.454;2022-12-20T03:29:08;101105.53;;;11.73;76.17
59029;BME280;45919;51.420;5.454;2022-12-20T03:30:10;101108.25;;;11.79;75.88
59029;BME280;45919;51.420;5.454;2022-12-20T03:31:12;101078.34;;;11.62;76.06
59029;BME280;45919;51.420;5.454;2022-12-20T03:32:14;101116.13;;;11.82;75.61
59029;BME280;45919;51.420;5.454;2022-12-20T03:33:15;101103.91;;;11.81;75.65
59029;BME280;45919;51.420;5.454;2022-12-20T03:34:17;101098.66;;;11.78;75.73
59029;BME280;45919;51.420;5.454;2022-12-20T03:35:19;101104.84;;;11.85;75.60
59029;BME280;45919;51.420;5.454;2022-12-20T03:36:20;101112.72;;;11.87;75.35
59029;BME280;45919;51.420;5.454;2022-12-20T03:37:24;101109.19;;;11.84;75.41
59029;BME280;45919;51.420;5.454;2022-12-20T03:38:25;101117.13;;;11.89;75.53
59029;BME280;45919;51.420;5.454;2022-12-20T03:39:27;101121.47;;;11.90;75.56
59029;BME280;45919;51.420;5.454;2022-12-20T03:40:29;101115.34;;;11.90;75.33
59029;BME280;45919;51.420;5.454;2022-12-20T03:41:30;101115.38;;;11.91;75.70
59029;BME280;45919;51.420;5.454;2022-12-20T03:42:32;101104.94;;;11.93;75.46
59029;BME280;45919;51.420;5.454;2022-12-20T03:43:34;101120.69;;;11.94;75.04
59029;BME280;45919;51.420;5.454;2022-12-20T03:44:35;101125.03;;;11.95;75.02
59029;BME280;45919;51.420;5.454;2022-12-20T03:45:37;101125.03;;;11.95;75.34
59029;BME280;45919;51.420;5.454;2022-12-20T03:46:38;101120.72;;;11.98;74.99
59029;BME280;45919;51.420;5.454;2022-12-20T03:47:40;101115.50;;;11.99;74.81
59029;BME280;45919;51.420;5.454;2022-12-20T03:48:42;101098.78;;;11.89;75.00
59029;BME280;45919;51.420;5.454;2022-12-20T03:49:44;101116.41;;;12.01;75.08
59029;BME280;45919;51.420;5.454;2022-12-20T03:50:45;101119.00;;;12.01;74.96
59029;BME280;45919;51.420;5.454;2022-12-20T03:51:47;101119.91;;;12.03;74.78
59029;BME280;45919;51.420;5.454;2022-12-20T03:52:49;101106.81;;;12.03;75.17
59029;BME280;45919;51.420;5.454;2022-12-20T03:53:50;101123.44;;;12.05;74.69
59029;BME280;45919;51.420;5.454;2022-12-20T03:54:52;101122.56;;;12.06;74.78
59029;BME280;45919;51.420;5.454;2022-12-20T03:55:53;101120.84;;;12.08;74.87
59029;BME280;45919;51.420;5.454;2022-12-20T03:56:55;101118.22;;;12.05;74.75
59029;BME280;45919;51.420;5.454;2022-12-20T03:57:56;101091.88;;;11.93;74.89
59029;BME280;45919;51.420;5.454;2022-12-20T03:58:58;101091.91;;;11.98;74.65
59029;BME280;45919;51.420;5.454;2022-12-20T04:00:00;100996.94;;;11.41;74.70
59029;BME280;45919;51.420;5.454;2022-12-20T04:01:16;101108.72;;;12.12;75.00
59029;BME280;45919;51.420;5.454;2022-12-20T04:02:17;101117.44;;;12.11;74.80
59029;BME280;45919;51.420;5.454;2022-12-20T04:03:19;101113.97;;;12.12;74.78
59029;BME280;45919;51.420;5.454;2022-12-20T04:04:21;101102.56;;;12.10;74.59
59029;BME280;45919;51.420;5.454;2022-12-20T04:05:22;101112.25;;;12.14;74.44
59029;BME280;45919;51.420;5.454;2022-12-20T04:06:24;101080.63;;;12.02;74.45
59029;BME280;45919;51.420;5.454;2022-12-20T04:07:25;101106.09;;;12.12;74.25
59029;BME280;45919;51.420;5.454;2022-12-20T04:08:28;101104.38;;;12.14;74.35
59029;BME280;45919;51.420;5.454;2022-12-20T04:09:29;101112.25;;;12.16;74.30
59029;BME280;45919;51.420;5.454;2022-12-20T04:10:31;101069.16;;;11.92;74.28
59029;BME280;45919;51.420;5.454;2022-12-20T04:11:32;101106.13;;;12.15;74.51
59029;BME280;45919;51.420;5.454;2022-12-20T04:12:34;101113.97;;;12.15;73.79
59029;BME280;45919;51.420;5.454;2022-12-20T04:13:36;101107.91;;;12.16;74.29
59029;BME280;45919;51.420;5.454;2022-12-20T04:14:37;101077.13;;;12.01;74.12
59029;BME280;45919;51.420;5.454;2022-12-20T04:15:39;101107.91;;;12.16;73.93
59029;BME280;45919;51.420;5.454;2022-12-20T04:16:40;101102.66;;;12.16;74.15
59029;BME280;45919;51.420;5.454;2022-12-20T04:17:42;101100.88;;;12.15;73.82
59029;BME280;45919;51.420;5.454;2022-12-20T04:18:43;101110.53;;;12.16;74.20
59029;BME280;45919;51.420;5.454;2022-12-20T04:19:45;101112.28;;;12.17;74.08
59029;BME280;45919;51.420;5.454;2022-12-20T04:20:51;101105.34;;;12.21;74.28
59029;BME280;45919;51.420;5.454;2022-12-20T04:21:53;101050.75;;;11.86;74.01
59029;BME280;45919;51.420;5.454;2022-12-20T04:22:59;101103.50;;;12.15;74.27
59029;BME280;45919;51.420;5.454;2022-12-20T04:24:01;101103.56;;;12.18;74.20
59029;BME280;45919;51.420;5.454;2022-12-20T04:25:04;101094.81;;;12.16;73.92
59029;BME280;45919;51.420;5.454;2022-12-20T04:26:07;101094.84;;;12.19;74.21
59029;BME280;45919;51.420;5.454;2022-12-20T04:27:09;101092.22;;;12.18;74.00
59029;BME280;45919;51.420;5.454;2022-12-20T04:28:10;101098.34;;;12.20;74.14
59029;BME280;45919;51.420;5.454;2022-12-20T04:29:12;101106.22;;;12.20;74.05
59029;BME280;45919;51.420;5.454;2022-12-20T04:30:14;101101.84;;;12.21;74.33
59029;BME280;45919;51.420;5.454;2022-12-20T04:31:16;101100.97;;;12.20;74.26
59029;BME280;45919;51.420;5.454;2022-12-20T04:32:22;101097.47;;;12.21;74.25
59029;BME280;45919;51.420;5.454;2022-12-20T04:33:24;101094.84;;;12.21;74.24
59029;BME280;45919;51.420;5.454;2022-12-20T04:34:26;101098.38;;;12.22;74.33
59029;BME280;45919;51.420;5.454;2022-12-20T04:35:28;101097.50;;;12.23;74.41
59029;BME280;45919;51.420;5.454;2022-12-20T04:36:30;101060.63;;;12.07;74.25
59029;BME280;45919;51.420;5.454;2022-12-20T04:37:31;101078.22;;;12.17;74.12
59029;BME280;45919;51.420;5.454;2022-12-20T04:38:33;101086.16;;;12.24;74.41
59029;BME280;45919;51.420;5.454;2022-12-20T04:39:34;101083.56;;;12.25;74.24
59029;BME280;45919;51.420;5.454;2022-12-20T04:40:36;101085.28;;;12.25;74.21
59029;BME280;45919;51.420;5.454;2022-12-20T04:41:37;101073.91;;;12.23;74.31
59029;BME280;45919;51.420;5.454;2022-12-20T04:42:39;101067.72;;;12.16;74.32
59029;BME280;45919;51.420;5.454;2022-12-20T04:43:41;101057.22;;;12.10;74.36
59029;BME280;45919;51.420;5.454;2022-12-20T04:44:42;101089.72;;;12.27;74.61
59029;BME280;45919;51.420;5.454;2022-12-20T04:45:46;101088.00;;;12.31;74.48
59029;BME280;45919;51.420;5.454;2022-12-20T04:46:48;101094.06;;;12.28;74.49
59029;BME280;45919;51.420;5.454;2022-12-20T04:47:50;101093.22;;;12.29;74.36
59029;BME280;45919;51.420;5.454;2022-12-20T04:48:52;101086.22;;;12.30;74.59
59029;BME280;45919;51.420;5.454;2022-12-20T04:49:58;101085.38;;;12.31;74.42
59029;BME280;45919;51.420;5.454;2022-12-20T04:51:00;101060.78;;;12.19;74.72
59029;BME280;45919;51.420;5.454;2022-12-20T04:52:01;101092.38;;;12.32;74.61
59029;BME280;45919;51.420;5.454;2022-12-20T04:53:23;101085.44;;;12.36;74.40
59029;BME280;45919;51.420;5.454;2022-12-20T04:54:43;101081.06;;;12.36;74.43
59029;BME280;45919;51.420;5.454;2022-12-20T04:55:44;101076.72;;;12.35;74.80
59029;BME280;45919;51.420;5.454;2022-12-20T04:56:46;101084.56;;;12.35;74.58
59029;BME280;45919;51.420;5.454;2022-12-20T04:57:47;101080.16;;;12.34;74.85
59029;BME280;45919;51.420;5.454;2022-12-20T04:58:50;101072.28;;;12.29;74.61
59029;BME280;45919;51.420;5.454;2022-12-20T04:59:52;101067.06;;;12.32;74.67
59029;BME280;45919;51.420;5.454;2022-12-20T05:00:54;101067.09;;;12.36;74.95
59029;BME280;45919;51.420;5.454;2022-12-20T05:01:56;101067.97;;;12.35;74.53
59029;BME280;45919;51.420;5.454;2022-12-20T05:02:58;101074.09;;;12.37;74.97
59029;BME280;45919;51.420;5.454;2022-12-20T05:04:00;101061.75;;;12.26;75.07
59029;BME280;45919;51.420;5.454;2022-12-20T05:05:01;101080.16;;;12.34;75.04
59029;BME280;45919;51.420;5.454;2022-12-20T05:06:04;101069.72;;;12.36;74.95
59029;BME280;45919;51.420;5.454;2022-12-20T05:07:06;101046.84;;;12.21;74.99
59029;BME280;45919;51.420;5.454;2022-12-20T05:08:07;101066.25;;;12.37;75.18
59029;BME280;45919;51.420;5.454;2022-12-20T05:09:09;101050.47;;;12.32;75.03
59029;BME280;45919;51.420;5.454;2022-12-20T05:10:11;101069.72;;;12.37;75.24
59029;BME280;45919;51.420;5.454;2022-12-20T05:11:13;101043.38;;;12.23;75.07
59029;BME280;45919;51.420;5.454;2022-12-20T05:12:14;100970.44;;;11.83;75.08
59029;BME280;45919;51.420;5.454;2022-12-20T05:13:16;101065.38;;;12.38;75.13
59029;BME280;45919;51.420;5.454;2022-12-20T05:14:18;101067.97;;;12.36;75.04
59029;BME280;45919;51.420;5.454;2022-12-20T05:15:19;101064.47;;;12.37;75.28
59029;BME280;45919;51.420;5.454;2022-12-20T05:16:21;101066.25;;;12.37;75.48
59029;BME280;45919;51.420;5.454;2022-12-20T05:17:22;101067.97;;;12.36;75.30
59029;BME280;45919;51.420;5.454;2022-12-20T05:18:25;101068.00;;;12.38;75.30
59029;BME280;45919;51.420;5.454;2022-12-20T05:19:27;101066.22;;;12.35;75.67
59029;BME280;45919;51.420;5.454;2022-12-20T05:20:29;101062.75;;;12.36;75.69
59029;BME280;45919;51.420;5.454;2022-12-20T05:21:31;101000.28;;;11.96;75.58
59029;BME280;45919;51.420;5.454;2022-12-20T05:22:51;101057.50;;;12.35;75.77
59029;BME280;45919;51.420;5.454;2022-12-20T05:24:12;101046.13;;;12.34;75.64
59029;BME280;45919;51.420;5.454;2022-12-20T05:25:32;101046.13;;;12.34;75.83
59029;BME280;45919;51.420;5.454;2022-12-20T05:26:52;101047.00;;;12.33;75.93
59029;BME280;45919;51.420;5.454;2022-12-20T05:27:54;101025.00;;;12.18;76.00
59029;BME280;45919;51.420;5.454;2022-12-20T05:28:55;101051.34;;;12.31;76.22
59029;BME280;45919;51.420;5.454;2022-12-20T05:29:57;101039.97;;;12.30;75.76
59029;BME280;45919;51.420;5.454;2022-12-20T05:30:59;101049.56;;;12.30;75.95
59029;BME280;45919;51.420;5.454;2022-12-20T05:32:00;101053.94;;;12.29;76.25
59029;BME280;45919;51.420;5.454;2022-12-20T05:33:02;101020.44;;;12.06;76.04
59029;BME280;45919;51.420;5.454;2022-12-20T05:34:03;101037.31;;;12.27;75.89
59029;BME280;45919;51.420;5.454;2022-12-20T05:35:05;101039.06;;;12.30;76.14
59029;BME280;45919;51.420;5.454;2022-12-20T05:36:08;101052.19;;;12.30;76.04
59029;BME280;45919;51.420;5.454;2022-12-20T05:37:09;101046.09;;;12.29;75.89
59029;BME280;45919;51.420;5.454;2022-12-20T05:38:11;101011.78;;;12.09;75.96
59029;BME280;45919;51.420;5.454;2022-12-20T05:39:13;101031.16;;;12.21;76.04
59029;BME280;45919;51.420;5.454;2022-12-20T05:40:15;101041.69;;;12.27;76.10
59029;BME280;45919;51.420;5.454;2022-12-20T05:41:16;101012.72;;;12.11;75.87
59029;BME280;45919;51.420;5.454;2022-12-20T05:42:18;101025.03;;;12.20;75.64
59029;BME280;45919;51.420;5.454;2022-12-20T05:43:19;101036.41;;;12.25;75.44
59029;BME280;45919;51.420;5.454;2022-12-20T05:44:21;101030.28;;;12.25;75.71
59029;BME280;45919;51.420;5.454;2022-12-20T05:45:22;101034.63;;;12.21;75.65
59029;BME280;45919;51.420;5.454;2022-12-20T05:46:24;101039.00;;;12.22;75.61